Terminal Aerodrome Forecast
Issued by NWS Pendleton, OR

Home | Current Version | Previous Version | Text Only | Print | Product List | Glossary On
Versions: 1 2 3 4 5 6 7 8 9 10 11 12 13 14 15 16 17 18 19
660
FTUS46 KPDT 121629 AAB
TAFPDT
TAF AMD
KPDT 121629Z 1216/1312 VRB03KT 1 1/2SM BR BKN008 OVC110
      TEMPO 1216/1218 4SM BR SCT006 BKN080 OVC110
     FM121800 VRB05KT 6SM BR BKN110
     FM122100 27008KT P6SM BKN050 OVC080
     FM130600 26006KT 6SM -RA OVC050=

USA.gov is the U.S. government's official web portal to all federal, state and local government web resources and services.